createdAt,value
2022-07-27T00:01:15.634Z,101294.72
2022-07-27T00:03:45.882Z,101276.91
2022-07-27T00:06:15.797Z,101289.22
2022-07-27T00:08:43.941Z,101290.81
2022-07-27T00:11:15.451Z,101289.09
2022-07-27T00:13:45.065Z,101203.09
2022-07-27T00:16:13.335Z,101285.75
2022-07-27T00:18:41.850Z,101284.00
2022-07-27T00:21:09.955Z,101287.28
2022-07-27T00:23:38.114Z,101276.66
2022-07-27T00:26:06.211Z,101283.44
2022-07-27T00:28:35.634Z,101281.78
2022-07-27T00:31:03.728Z,101286.22
2022-07-27T00:33:31.827Z,101265.28
2022-07-27T00:36:00.001Z,101229.28
2022-07-27T00:38:28.182Z,101236.28
2022-07-27T00:40:56.853Z,101270.47
2022-07-27T00:43:25.143Z,101179.13
2022-07-27T00:45:54.582Z,101294.34
2022-07-27T00:48:22.662Z,101083.97
2022-07-27T00:50:52.666Z,101283.56
2022-07-27T00:53:21.110Z,101207.31
2022-07-27T00:55:49.245Z,101268.50
2022-07-27T00:58:18.399Z,101275.78
2022-07-27T01:00:46.794Z,101277.53
2022-07-27T01:03:16.640Z,101273.00
2022-07-27T01:05:44.905Z,101249.41
2022-07-27T01:08:15.010Z,101279.47
2022-07-27T01:10:44.503Z,101268.50
2022-07-27T01:13:13.496Z,101273.84
2022-07-27T01:15:43.494Z,101239.78
2022-07-27T01:18:28.498Z,101273.78
2022-07-27T01:20:57.202Z,101247.03
2022-07-27T01:23:27.371Z,101284.16
2022-07-27T01:25:55.582Z,101275.00
2022-07-27T01:28:24.192Z,101276.00
2022-07-27T01:30:53.062Z,101140.78
2022-07-27T01:33:25.837Z,101114.28
2022-07-27T01:35:56.012Z,101278.84
2022-07-27T01:38:24.537Z,101273.59
2022-07-27T01:40:54.580Z,101263.63
2022-07-27T01:43:23.095Z,101209.66
2022-07-27T01:45:51.588Z,101263.91
2022-07-27T01:48:19.975Z,101264.84
2022-07-27T01:50:48.123Z,101262.34
2022-07-27T01:53:16.242Z,101286.28
2022-07-27T01:55:44.626Z,101261.41
2022-07-27T01:58:14.633Z,101234.44
2022-07-27T02:00:43.301Z,101269.00
2022-07-27T02:03:12.931Z,101249.63
2022-07-27T02:05:41.220Z,101257.44
2022-07-27T02:08:09.991Z,101260.84
2022-07-27T02:10:58.873Z,101248.53
2022-07-27T02:13:28.383Z,101256.34
2022-07-27T02:15:57.050Z,101259.88
2022-07-27T02:18:33.199Z,101244.94
2022-07-27T02:21:05.832Z,101263.31
2022-07-27T02:23:34.252Z,101230.06
2022-07-27T02:26:02.389Z,101219.66
2022-07-27T02:28:31.779Z,101257.19
2022-07-27T02:30:59.898Z,101236.06
2022-07-27T02:33:27.962Z,101236.41
2022-07-27T02:35:56.290Z,101269.69
2022-07-27T02:38:24.422Z,101262.56
2022-07-27T02:40:52.566Z,101270.56
2022-07-27T02:43:20.693Z,101260.56
2022-07-27T02:45:50.187Z,101261.34
2022-07-27T02:48:18.322Z,101238.31
2022-07-27T02:50:46.423Z,101265.28
2022-07-27T02:53:14.541Z,101264.69
2022-07-27T02:55:42.627Z,101265.63
2022-07-27T02:58:10.690Z,101237.75
2022-07-27T03:00:38.904Z,101247.94
2022-07-27T03:03:08.787Z,101261.00
2022-07-27T03:05:36.831Z,101233.28
2022-07-27T03:08:05.509Z,101214.78
2022-07-27T03:10:33.774Z,101262.16
2022-07-27T03:13:01.880Z,101257.69
2022-07-27T03:15:30.677Z,101256.97
2022-07-27T03:17:58.762Z,101260.56
2022-07-27T03:20:28.623Z,101257.88
2022-07-27T03:22:56.713Z,101260.81
2022-07-27T03:25:25.883Z,101256.47
2022-07-27T03:27:59.261Z,101260.19
2022-07-27T03:30:30.119Z,101255.00
2022-07-27T03:32:58.278Z,101257.75
2022-07-27T03:35:26.390Z,101244.88
2022-07-27T03:37:56.622Z,101243.03
2022-07-27T03:40:25.078Z,101260.13
2022-07-27T03:42:53.139Z,101268.13
2022-07-27T03:45:21.276Z,101237.63
2022-07-27T03:47:49.321Z,101259.91
2022-07-27T03:50:17.555Z,101261.44
2022-07-27T03:52:45.936Z,101282.38
2022-07-27T03:55:15.525Z,101252.66
2022-07-27T03:57:43.746Z,101286.88
2022-07-27T04:00:14.109Z,101280.78
2022-07-27T04:02:42.997Z,101270.97
2022-07-27T04:05:11.901Z,101285.00
2022-07-27T04:07:40.333Z,101293.69
2022-07-27T04:10:10.504Z,101282.03
2022-07-27T04:12:40.561Z,101259.97
2022-07-27T04:15:10.683Z,101285.53
2022-07-27T04:17:55.711Z,101278.38
2022-07-27T04:20:25.515Z,101278.56
2022-07-27T04:22:53.634Z,101262.34
2022-07-27T04:25:22.173Z,101282.53
2022-07-27T04:27:54.472Z,101265.91
2022-07-27T04:30:23.134Z,101281.38
2022-07-27T04:32:51.364Z,101278.72
2022-07-27T04:35:24.233Z,101278.72
2022-07-27T04:37:58.251Z,101285.78
2022-07-27T04:40:32.233Z,101284.13
2022-07-27T04:43:02.979Z,101288.34
2022-07-27T04:45:32.972Z,101265.03
2022-07-27T04:48:01.801Z,101244.84
2022-07-27T04:50:46.489Z,101285.47
2022-07-27T04:53:16.407Z,101291.78
2022-07-27T04:55:46.932Z,101246.22
2022-07-27T04:58:17.243Z,101208.03
2022-07-27T05:00:48.483Z,101256.13
2022-07-27T05:03:16.922Z,101264.41
2022-07-27T05:05:49.874Z,101277.13
2022-07-27T05:08:19.495Z,101252.38
2022-07-27T05:10:48.167Z,101298.41
2022-07-27T05:13:17.934Z,101291.56
2022-07-27T05:15:54.865Z,101264.00
2022-07-27T05:18:24.303Z,101222.84
2022-07-27T05:20:52.546Z,101266.50
2022-07-27T05:23:20.666Z,101243.88
2022-07-27T05:25:48.942Z,101238.53
2022-07-27T05:28:19.088Z,101275.19
2022-07-27T05:30:47.277Z,101305.56
2022-07-27T05:33:15.552Z,101290.50
2022-07-27T05:35:44.393Z,101324.59
2022-07-27T05:38:12.886Z,101298.06
2022-07-27T05:40:41.692Z,101319.13
2022-07-27T05:43:10.891Z,101286.47
2022-07-27T05:45:40.740Z,101289.59
2022-07-27T05:48:08.955Z,101281.53
2022-07-27T05:50:37.658Z,101265.56
2022-07-27T05:53:06.103Z,101301.16
2022-07-27T05:55:34.713Z,101294.09
2022-07-27T05:58:03.096Z,101266.28
2022-07-27T06:00:31.358Z,101313.59
2022-07-27T06:03:02.925Z,101326.88
2022-07-27T06:05:31.264Z,101266.28
2022-07-27T06:08:03.514Z,101324.06
2022-07-27T06:10:34.493Z,101295.78
2022-07-27T06:13:03.813Z,101332.31
2022-07-27T06:15:32.636Z,101335.69
2022-07-27T06:18:03.753Z,101335.16
2022-07-27T06:20:32.192Z,101326.88
2022-07-27T06:23:03.494Z,101319.44
2022-07-27T06:25:36.623Z,101340.81
2022-07-27T06:28:05.280Z,101343.56
2022-07-27T06:30:33.458Z,101343.69
2022-07-27T06:33:06.049Z,101337.06
2022-07-27T06:35:36.194Z,101333.25
2022-07-27T06:38:07.997Z,101284.41
2022-07-27T06:40:36.835Z,101331.53
2022-07-27T06:43:05.015Z,101331.22
2022-07-27T06:45:33.054Z,101337.50
2022-07-27T06:48:02.676Z,101317.97
2022-07-27T06:50:31.069Z,101330.09
2022-07-27T06:52:59.118Z,101334.69
2022-07-27T06:55:27.484Z,101314.09
2022-07-27T06:57:55.812Z,101334.75
2022-07-27T07:00:23.964Z,101344.19
2022-07-27T07:02:54.135Z,101326.63
2022-07-27T07:05:24.539Z,101308.72
2022-07-27T07:07:53.219Z,101305.78
2022-07-27T07:10:23.733Z,101318.66
2022-07-27T07:12:56.084Z,101321.69
2022-07-27T07:15:27.829Z,101290.38
2022-07-27T07:17:56.209Z,101285.69
2022-07-27T07:20:26.003Z,101346.94
2022-07-27T07:22:54.465Z,101339.06
2022-07-27T07:25:23.443Z,101328.22
2022-07-27T07:27:52.226Z,101319.50
2022-07-27T07:30:20.369Z,101355.13
2022-07-27T07:32:48.638Z,101348.75
2022-07-27T07:35:17.022Z,101341.81
2022-07-27T07:37:50.230Z,101356.97
2022-07-27T07:40:42.779Z,101347.75
2022-07-27T07:43:07.081Z,101348.75
2022-07-27T07:45:38.212Z,101339.19
2022-07-27T07:48:18.454Z,101368.19
2022-07-27T07:50:46.741Z,101334.31
2022-07-27T07:53:22.735Z,101346.88
2022-07-27T07:55:51.726Z,101372.38
2022-07-27T07:58:20.147Z,101366.78
2022-07-27T08:00:48.277Z,101373.28
2022-07-27T08:03:17.074Z,101389.63
2022-07-27T08:05:45.866Z,101392.72
2022-07-27T08:08:14.021Z,101397.41
2022-07-27T08:10:43.541Z,101389.09
2022-07-27T08:13:11.601Z,101391.34
2022-07-27T08:15:39.722Z,101399.88
2022-07-27T08:18:08.158Z,101396.72
2022-07-27T08:20:36.501Z,101401.84
2022-07-27T08:23:04.996Z,101400.25
2022-07-27T08:25:33.651Z,101395.06
2022-07-27T08:28:03.176Z,101398.94
2022-07-27T08:30:32.896Z,101401.09
2022-07-27T08:33:03.147Z,101406.50
2022-07-27T08:35:32.894Z,101403.78
2022-07-27T08:38:01.887Z,101398.41
2022-07-27T08:40:46.765Z,101394.44
2022-07-27T08:43:24.416Z,101395.84
2022-07-27T08:45:56.389Z,101404.72
2022-07-27T08:48:25.929Z,101396.44
2022-07-27T08:50:54.706Z,101390.31
2022-07-27T08:53:23.874Z,101399.97
2022-07-27T08:55:52.130Z,101402.34
2022-07-27T08:58:21.768Z,101394.97
2022-07-27T09:00:50.946Z,101405.91
2022-07-27T09:03:21.722Z,101402.94
2022-07-27T09:05:52.201Z,101408.81
2022-07-27T09:08:24.160Z,101404.16
2022-07-27T09:10:55.175Z,101409.28
2022-07-27T09:13:27.205Z,101412.47
2022-07-27T09:18:45.484Z,101403.13
2022-07-27T09:21:18.650Z,101406.41
2022-07-27T09:23:49.193Z,101406.13
2022-07-27T09:26:35.836Z,101414.06
2022-07-27T09:29:08.611Z,101422.19
2022-07-27T09:31:43.328Z,101415.13
2022-07-27T09:34:13.215Z,101417.69
2022-07-27T09:36:53.062Z,101420.63
2022-07-27T09:39:22.139Z,101431.16
2022-07-27T09:41:54.048Z,101430.34
2022-07-27T09:44:43.235Z,101425.25
2022-07-27T09:47:26.419Z,101439.03
2022-07-27T09:49:57.203Z,101424.03
2022-07-27T09:52:28.999Z,101430.75
2022-07-27T09:55:03.373Z,101425.84
2022-07-27T09:57:31.625Z,101420.16
2022-07-27T10:00:12.017Z,101421.22
2022-07-27T10:02:41.424Z,101425.97
2022-07-27T10:05:10.731Z,101416.84
2022-07-27T10:07:39.399Z,101404.50
2022-07-27T10:10:09.313Z,101408.50
2022-07-27T10:12:37.412Z,101405.06
2022-07-27T10:15:06.109Z,101398.88
2022-07-27T10:17:36.678Z,101407.31
2022-07-27T10:20:08.975Z,101408.00
2022-07-27T10:22:50.800Z,101406.59
2022-07-27T10:25:19.025Z,101405.72
2022-07-27T10:27:48.574Z,101421.91
2022-07-27T10:30:27.692Z,101415.28
2022-07-27T10:32:57.368Z,101420.03
2022-07-27T10:35:36.073Z,101431.88
2022-07-27T10:38:12.991Z,101422.44
2022-07-27T10:40:41.223Z,101419.38
2022-07-27T10:43:17.686Z,101420.41
2022-07-27T10:46:00.059Z,101436.78
2022-07-27T10:48:44.321Z,101449.13
2022-07-27T10:51:17.459Z,101451.41
2022-07-27T10:54:11.492Z,101442.44
2022-07-27T10:56:48.243Z,101451.91
2022-07-27T10:59:58.200Z,101459.75
2022-07-27T11:02:39.164Z,101462.88
2022-07-27T11:05:29.131Z,101461.03
2022-07-27T11:08:35.993Z,101419.44
2022-07-27T11:10:49.222Z,101462.03
2022-07-27T11:13:19.451Z,101452.53
2022-07-27T11:15:55.866Z,101464.19
2022-07-27T11:18:28.622Z,101454.34
2022-07-27T11:21:20.335Z,101454.72
2022-07-27T11:23:54.663Z,101458.56
2022-07-27T11:26:24.621Z,101452.81
2022-07-27T11:28:53.370Z,101450.38
2022-07-27T11:31:45.304Z,101446.72
2022-07-27T11:34:11.501Z,101451.50
2022-07-27T11:36:44.426Z,101454.91
2022-07-27T11:39:15.079Z,101452.03
2022-07-27T11:42:11.717Z,101459.16
2022-07-27T11:44:33.094Z,101447.41
2022-07-27T11:47:02.874Z,101450.69
2022-07-27T11:49:32.796Z,101463.41
2022-07-27T11:52:05.158Z,101416.53
2022-07-27T11:54:34.728Z,101457.03
2022-07-27T11:57:05.265Z,101455.31
2022-07-27T11:59:34.844Z,101461.84
2022-07-27T12:02:04.597Z,101452.00
2022-07-27T12:04:35.167Z,101452.59
2022-07-27T12:07:10.547Z,101455.69
2022-07-27T12:09:40.646Z,101445.97
2022-07-27T12:12:15.023Z,101455.66
2022-07-27T12:14:45.797Z,101443.44
2022-07-27T12:17:19.643Z,101447.59
2022-07-27T12:19:57.501Z,101450.16
2022-07-27T12:22:29.591Z,101453.81
2022-07-27T12:24:58.553Z,101443.03
2022-07-27T12:27:27.462Z,101449.47
2022-07-27T12:30:09.354Z,101446.78
2022-07-27T12:32:39.938Z,101446.66
2022-07-27T12:35:23.282Z,101451.75
2022-07-27T12:37:59.575Z,101446.56
2022-07-27T12:40:28.742Z,101451.84
2022-07-27T12:42:59.165Z,101440.94
2022-07-27T12:45:33.383Z,101447.66
2022-07-27T12:48:09.466Z,101440.41
2022-07-27T12:50:38.515Z,101444.84
2022-07-27T12:53:08.442Z,101442.69
2022-07-27T12:55:36.964Z,101451.78
2022-07-27T12:58:05.024Z,101436.91
2022-07-27T13:00:34.172Z,101438.84
2022-07-27T13:03:03.956Z,101445.22
2022-07-27T13:05:32.647Z,101442.31
2022-07-27T13:08:00.854Z,101439.19
2022-07-27T13:10:30.381Z,101448.72
2022-07-27T13:12:59.076Z,101468.84
2022-07-27T13:15:27.570Z,101444.25
2022-07-27T13:17:55.655Z,101463.88
2022-07-27T13:20:23.891Z,101455.16
2022-07-27T13:22:52.789Z,101452.53
2022-07-27T13:25:21.434Z,101446.84
2022-07-27T13:27:51.050Z,101452.75
2022-07-27T13:30:20.081Z,101458.50
2022-07-27T13:32:48.188Z,101459.16
2022-07-27T13:35:17.550Z,101457.16
2022-07-27T13:37:45.874Z,101458.19
2022-07-27T13:40:14.942Z,101445.84
2022-07-27T13:42:42.941Z,101443.34
2022-07-27T13:45:13.044Z,101461.44
2022-07-27T13:47:41.842Z,101457.13
2022-07-27T13:50:17.751Z,101467.00
2022-07-27T13:52:47.359Z,101443.34
2022-07-27T13:55:16.585Z,101436.97
2022-07-27T13:57:47.150Z,101450.22
2022-07-27T14:00:17.846Z,101445.72
2022-07-27T14:02:46.090Z,101442.16
2022-07-27T14:05:15.734Z,101429.88
2022-07-27T14:07:44.427Z,101441.06
2022-07-27T14:10:31.174Z,101426.81
2022-07-27T14:13:07.888Z,101430.78
2022-07-27T14:15:53.469Z,101421.97
2022-07-27T14:18:25.646Z,101428.03
2022-07-27T14:20:54.337Z,101437.41
2022-07-27T14:23:22.793Z,101433.41
2022-07-27T14:25:50.932Z,101429.88
2022-07-27T14:28:19.374Z,101424.28
2022-07-27T14:30:49.605Z,101391.69
2022-07-27T14:33:18.116Z,101429.66
2022-07-27T14:35:46.623Z,101416.75
2022-07-27T14:38:27.137Z,101411.34
2022-07-27T14:40:59.347Z,101423.16
2022-07-27T14:43:28.401Z,101423.75
2022-07-27T14:45:57.878Z,101414.31
2022-07-27T14:48:42.626Z,101412.22
2022-07-27T14:51:14.026Z,101414.84
2022-07-27T14:53:42.057Z,101428.72
2022-07-27T14:56:10.087Z,101419.13
2022-07-27T14:58:38.190Z,101420.94
2022-07-27T15:01:07.735Z,101420.25
2022-07-27T15:03:35.868Z,101422.69
2022-07-27T15:06:04.116Z,101412.72
2022-07-27T15:08:32.148Z,101425.94
2022-07-27T15:11:00.158Z,101426.50
2022-07-27T15:13:28.183Z,101426.22
2022-07-27T15:15:58.052Z,101436.53
2022-07-27T15:18:27.632Z,101427.22
2022-07-27T15:20:55.803Z,101431.13
2022-07-27T15:23:23.919Z,101420.03
2022-07-27T15:25:51.937Z,101419.50
2022-07-27T15:28:20.037Z,101428.00
2022-07-27T15:30:48.737Z,101416.03
2022-07-27T15:33:16.887Z,101421.88
2022-07-27T15:35:46.382Z,101436.81
2022-07-27T15:38:14.498Z,101423.31
2022-07-27T15:40:42.546Z,101425.44
2022-07-27T15:43:12.322Z,101429.69
2022-07-27T15:45:40.904Z,101433.50
2022-07-27T15:48:11.511Z,101414.34
2022-07-27T15:50:41.444Z,101420.88
2022-07-27T15:53:14.750Z,101405.94
2022-07-27T15:55:44.191Z,101432.13
2022-07-27T15:58:13.467Z,101424.69
2022-07-27T16:00:41.884Z,101406.88
2022-07-27T16:03:10.269Z,101427.53
2022-07-27T16:05:39.043Z,101428.94
2022-07-27T16:08:09.628Z,101429.25
2022-07-27T16:10:39.775Z,101431.53
2022-07-27T16:13:08.373Z,101419.25
2022-07-27T16:15:55.119Z,101419.28
2022-07-27T16:18:23.290Z,101423.88
2022-07-27T16:20:51.810Z,101426.44
2022-07-27T16:23:21.579Z,101372.09
2022-07-27T16:26:04.068Z,101425.91
2022-07-27T16:28:33.666Z,101429.41
2022-07-27T16:31:01.896Z,101425.88
2022-07-27T16:33:30.239Z,101425.72
2022-07-27T16:35:58.496Z,101428.47
2022-07-27T16:38:26.581Z,101434.84
2022-07-27T16:40:56.003Z,101424.16
2022-07-27T16:43:37.228Z,101419.28
2022-07-27T16:46:07.967Z,101428.00
2022-07-27T16:48:41.789Z,101420.25
2022-07-27T16:51:11.958Z,101421.50
2022-07-27T16:53:40.163Z,101420.03
2022-07-27T16:56:09.967Z,101424.06
2022-07-27T16:58:38.567Z,101426.72
2022-07-27T17:01:07.091Z,101417.50
2022-07-27T17:03:35.387Z,101422.94
2022-07-27T17:06:06.506Z,101429.91
2022-07-27T17:08:35.636Z,101425.75
2022-07-27T17:11:05.344Z,101426.50
2022-07-27T17:13:36.705Z,101430.72
2022-07-27T17:16:06.147Z,101436.56
2022-07-27T17:18:39.821Z,101432.25
2022-07-27T17:21:09.479Z,101442.03
2022-07-27T17:23:39.725Z,101442.88
2022-07-27T17:26:09.904Z,101448.06
2022-07-27T17:28:40.341Z,101451.47
2022-07-27T17:31:11.081Z,101446.44
2022-07-27T17:33:40.019Z,101451.09
2022-07-27T17:36:14.748Z,101462.38
2022-07-27T17:38:43.947Z,101443.69
2022-07-27T17:41:12.305Z,101460.31
2022-07-27T17:43:41.882Z,101459.03
2022-07-27T17:46:11.724Z,101462.03
2022-07-27T17:48:40.690Z,101458.72
2022-07-27T17:51:10.463Z,101467.13
2022-07-27T17:53:39.023Z,101446.47
2022-07-27T17:56:08.281Z,101465.63
2022-07-27T17:58:36.861Z,101463.47
2022-07-27T18:01:08.667Z,101463.88
2022-07-27T18:03:36.993Z,101461.19
2022-07-27T18:06:05.333Z,101458.81
2022-07-27T18:08:33.655Z,101457.03
2022-07-27T18:11:01.675Z,101466.34
2022-07-27T18:13:39.284Z,101471.34
2022-07-27T18:16:12.019Z,101469.91
2022-07-27T18:18:41.277Z,101475.31
2022-07-27T18:21:10.725Z,101469.06
2022-07-27T18:23:39.008Z,101480.19
2022-07-27T18:26:07.373Z,101481.50
2022-07-27T18:28:39.491Z,101485.06
2022-07-27T18:31:12.374Z,101475.09
2022-07-27T18:33:45.719Z,101484.59
2022-07-27T18:36:14.504Z,101484.50
2022-07-27T18:38:45.017Z,101463.75
2022-07-27T18:41:14.072Z,101487.28
2022-07-27T18:43:42.092Z,101483.88
2022-07-27T18:46:12.483Z,101493.00
2022-07-27T18:48:40.574Z,101494.50
2022-07-27T18:51:09.262Z,101479.63
2022-07-27T18:53:37.587Z,101484.75
2022-07-27T18:56:06.294Z,101480.44
2022-07-27T18:58:34.473Z,101495.47
2022-07-27T19:01:02.647Z,101494.19
2022-07-27T19:03:32.248Z,101492.59
2022-07-27T19:06:00.332Z,101496.28
2022-07-27T19:08:29.008Z,101496.56
2022-07-27T19:10:57.058Z,101511.72
2022-07-27T19:13:25.191Z,101508.41
2022-07-27T19:15:53.184Z,101505.91
2022-07-27T19:18:23.539Z,101510.44
2022-07-27T19:20:53.194Z,101502.50
2022-07-27T19:23:21.230Z,101510.44
2022-07-27T19:25:49.363Z,101515.94
2022-07-27T19:28:19.484Z,101518.56
2022-07-27T19:30:48.668Z,101524.06
2022-07-27T19:33:16.839Z,101526.63
2022-07-27T19:35:44.857Z,101530.44
2022-07-27T19:38:14.309Z,101528.66
2022-07-27T19:40:45.709Z,101523.94
2022-07-27T19:43:15.826Z,101532.28
2022-07-27T19:45:44.536Z,101535.75
2022-07-27T19:48:12.814Z,101530.44
2022-07-27T19:50:40.923Z,101537.75
2022-07-27T19:53:09.336Z,101540.38
2022-07-27T19:55:38.881Z,101545.03
2022-07-27T19:58:06.903Z,101554.66
2022-07-27T20:00:35.167Z,101552.03
2022-07-27T20:03:03.593Z,101548.97
2022-07-27T20:05:31.877Z,101554.53
2022-07-27T20:08:00.050Z,101549.34
2022-07-27T20:10:28.237Z,101543.22
2022-07-27T20:12:57.920Z,101541.31
2022-07-27T20:15:26.343Z,101544.09
2022-07-27T20:17:54.680Z,101546.66
2022-07-27T20:20:23.098Z,101550.16
2022-07-27T20:22:51.214Z,101551.09
2022-07-27T20:25:19.739Z,101546.50
2022-07-27T20:27:48.420Z,101551.16
2022-07-27T20:30:20.080Z,101552.09
2022-07-27T20:32:48.670Z,101563.69
2022-07-27T20:35:17.220Z,101563.50
2022-07-27T20:37:46.309Z,101561.28
2022-07-27T20:40:14.544Z,101561.53
2022-07-27T20:42:43.502Z,101555.66
2022-07-27T20:45:14.443Z,101553.28
2022-07-27T20:47:44.390Z,101550.09
2022-07-27T20:50:13.734Z,101564.41
2022-07-27T20:52:42.727Z,101564.72
2022-07-27T20:55:12.275Z,101567.81
2022-07-27T20:57:40.553Z,101559.00
2022-07-27T21:00:10.094Z,101556.56
2022-07-27T21:02:38.919Z,101563.03
2022-07-27T21:05:09.803Z,101572.16
2022-07-27T21:07:37.909Z,101565.31
2022-07-27T21:10:06.600Z,101569.63
2022-07-27T21:12:34.833Z,101569.84
2022-07-27T21:15:03.112Z,101576.50
2022-07-27T21:17:31.190Z,101574.75
2022-07-27T21:19:59.397Z,101575.06
2022-07-27T21:22:28.847Z,101576.00
2022-07-27T21:24:55.990Z,101573.59
2022-07-27T21:27:24.066Z,101577.38
2022-07-27T21:29:52.873Z,101575.47
2022-07-27T21:32:20.911Z,101576.28
2022-07-27T21:34:49.341Z,101584.56
2022-07-27T21:37:17.465Z,101579.03
2022-07-27T21:39:47.118Z,101589.00
2022-07-27T21:42:15.676Z,101587.91
2022-07-27T21:44:43.682Z,101584.44
2022-07-27T21:47:14.312Z,101586.22
2022-07-27T21:49:42.794Z,101579.03
2022-07-27T21:52:11.181Z,101580.91
2022-07-27T21:54:39.968Z,101586.16
2022-07-27T21:57:09.408Z,101583.06
2022-07-27T21:59:37.490Z,101585.81
2022-07-27T22:02:05.519Z,101580.63
2022-07-27T22:04:34.258Z,101579.63
2022-07-27T22:07:02.438Z,101581.72
2022-07-27T22:09:30.557Z,101584.41
2022-07-27T22:11:58.733Z,101585.66
2022-07-27T22:14:28.133Z,101586.63
2022-07-27T22:16:56.576Z,101588.00
2022-07-27T22:19:24.692Z,101584.56
2022-07-27T22:21:52.713Z,101585.59
2022-07-27T22:24:20.768Z,101588.41
2022-07-27T22:26:49.881Z,101588.63
2022-07-27T22:29:17.951Z,101587.13
2022-07-27T22:31:47.525Z,101590.38
2022-07-27T22:34:16.223Z,101597.16
2022-07-27T22:36:44.995Z,101594.28
2022-07-27T22:39:13.017Z,101600.03
2022-07-27T22:41:41.475Z,101603.94
2022-07-27T22:44:09.526Z,101606.94
2022-07-27T22:46:37.590Z,101603.44
2022-07-27T22:49:07.347Z,101599.28
2022-07-27T22:51:49.518Z,101598.00
2022-07-27T22:54:20.935Z,101603.78
2022-07-27T22:56:49.205Z,101600.13
2022-07-27T22:59:17.353Z,101601.81
2022-07-27T23:01:46.499Z,101606.69
2022-07-27T23:04:18.723Z,101601.47
2022-07-27T23:06:47.620Z,101607.03
2022-07-27T23:09:16.353Z,101608.41
2022-07-27T23:11:45.085Z,101612.06
2022-07-27T23:14:13.903Z,101600.03
2022-07-27T23:16:42.374Z,101610.22
2022-07-27T23:19:11.207Z,101614.34
2022-07-27T23:21:41.925Z,101609.00
2022-07-27T23:24:11.056Z,101617.78
2022-07-27T23:26:39.579Z,101617.06
2022-07-27T23:29:07.628Z,101617.06
2022-07-27T23:31:35.901Z,101608.59
2022-07-27T23:34:04.097Z,101599.97
2022-07-27T23:36:32.348Z,101603.38
2022-07-27T23:39:01.844Z,101601.72
2022-07-27T23:41:29.993Z,101603.53
2022-07-27T23:43:58.211Z,101600.41
2022-07-27T23:46:26.391Z,101597.00
2022-07-27T23:48:54.523Z,101601.56
2022-07-27T23:51:22.649Z,101595.59
2022-07-27T23:53:50.841Z,101599.50
2022-07-27T23:56:20.238Z,101602.50
2022-07-27T23:58:48.301Z,101595.34
